createdAt,value
2023-06-10T00:01:03.329Z,100597.44
2023-06-10T00:02:07.723Z,100599.06
2023-06-10T00:03:11.807Z,100606.59
2023-06-10T00:04:15.738Z,100599.13
2023-06-10T00:05:19.804Z,100603.84
2023-06-10T00:06:23.589Z,100600.66
2023-06-10T00:07:27.348Z,100602.69
2023-06-10T00:08:31.093Z,100613.03
2023-06-10T00:09:34.859Z,100619.34
2023-06-10T00:10:40.189Z,100592.97
2023-06-10T00:11:45.820Z,100613.03
2023-06-10T00:12:49.669Z,100614.31
2023-06-10T00:13:53.435Z,100617.06
2023-06-10T00:14:57.195Z,100622.66
2023-06-10T00:16:02.322Z,100628.63
2023-06-10T00:17:06.785Z,100623.47
2023-06-10T00:18:10.611Z,100621.16
2023-06-10T00:19:14.591Z,100623.25
2023-06-10T00:20:21.004Z,100626.34
2023-06-10T00:21:24.918Z,100617.16
2023-06-10T00:22:29.439Z,100626.00
2023-06-10T00:23:35.655Z,100622.78
2023-06-10T00:24:39.426Z,100617.88
2023-06-10T00:25:46.173Z,100624.72
2023-06-10T00:26:51.798Z,100628.19
2023-06-10T00:27:58.000Z,100639.91
2023-06-10T00:29:01.995Z,100634.72
2023-06-10T00:30:06.407Z,100637.56
2023-06-10T00:31:10.239Z,100640.78
2023-06-10T00:32:14.110Z,100632.84
2023-06-10T00:33:17.931Z,100649.19
2023-06-10T00:34:21.756Z,100626.88
2023-06-10T00:35:25.416Z,100641.78
2023-06-10T00:36:29.166Z,100638.34
2023-06-10T00:37:35.891Z,100629.84
2023-06-10T00:38:39.737Z,100633.06
2023-06-10T00:39:43.683Z,100623.53
2023-06-10T00:40:50.155Z,100630.28
2023-06-10T00:41:55.680Z,100639.13
2023-06-10T00:42:59.485Z,100639.59
2023-06-10T00:44:03.321Z,100630.88
2023-06-10T00:45:08.527Z,100621.13
2023-06-10T00:46:14.021Z,100637.25
2023-06-10T00:47:18.204Z,100642.91
2023-06-10T00:48:22.252Z,100639.78
2023-06-10T00:49:26.209Z,100648.88
2023-06-10T00:50:30.088Z,100648.41
2023-06-10T00:51:33.956Z,100655.53
2023-06-10T00:52:38.458Z,100644.66
2023-06-10T00:53:42.855Z,100654.66
2023-06-10T00:54:47.145Z,100658.34
2023-06-10T00:55:53.985Z,100654.31
2023-06-10T00:56:59.805Z,100656.72
2023-06-10T00:58:04.810Z,100658.69
2023-06-10T00:59:08.772Z,100660.63
2023-06-10T01:00:13.784Z,100639.16
2023-06-10T01:01:17.742Z,100653.50
2023-06-10T01:02:21.795Z,100659.75
2023-06-10T01:03:25.746Z,100656.19
2023-06-10T01:04:29.554Z,100655.84
2023-06-10T01:05:33.371Z,100651.13
2023-06-10T01:06:43.383Z,100629.53
2023-06-10T01:07:54.536Z,100644.53
2023-06-10T01:09:04.212Z,100637.06
2023-06-10T01:10:13.755Z,100658.91
2023-06-10T01:11:23.020Z,100649.72
2023-06-10T01:12:35.405Z,100660.28
2023-06-10T01:13:45.008Z,100663.03
2023-06-10T01:14:49.515Z,100662.94
2023-06-10T01:15:54.604Z,100637.91
2023-06-10T01:16:58.544Z,100660.63
2023-06-10T01:18:03.376Z,100663.66
2023-06-10T01:19:07.215Z,100661.34
2023-06-10T01:20:11.825Z,100679.47
2023-06-10T01:21:23.331Z,100677.91
2023-06-10T01:22:27.694Z,100680.66
2023-06-10T01:23:32.057Z,100679.84
2023-06-10T01:24:36.002Z,100678.00
2023-06-10T01:25:41.527Z,100693.66
2023-06-10T01:26:47.299Z,100686.13
2023-06-10T01:27:52.780Z,100695.44
2023-06-10T01:29:02.164Z,100681.72
2023-06-10T01:30:10.407Z,100693.06
2023-06-10T01:31:32.361Z,100687.88
2023-06-10T01:32:42.675Z,100690.41
2023-06-10T01:33:49.597Z,100689.16
2023-06-10T01:34:54.286Z,100700.50
2023-06-10T01:35:59.650Z,100701.44
2023-06-10T01:37:05.940Z,100699.44
2023-06-10T01:38:22.989Z,100705.34
2023-06-10T01:39:27.307Z,100703.38
2023-06-10T01:40:33.860Z,100692.81
2023-06-10T01:41:38.230Z,100699.72
2023-06-10T01:42:42.165Z,100696.97
2023-06-10T01:43:46.550Z,100711.34
2023-06-10T01:44:53.200Z,100686.09
2023-06-10T01:45:59.060Z,100697.53
2023-06-10T01:47:03.178Z,100706.97
2023-06-10T01:48:07.421Z,100705.22
2023-06-10T01:49:11.251Z,100699.84
2023-06-10T01:50:15.184Z,100693.69
2023-06-10T01:51:18.986Z,100692.03
2023-06-10T01:52:26.588Z,100699.81
2023-06-10T01:53:33.027Z,100696.28
2023-06-10T01:54:36.861Z,100687.94
2023-06-10T01:55:40.609Z,100692.84
2023-06-10T01:56:44.364Z,100698.06
2023-06-10T01:57:49.016Z,100700.25
2023-06-10T01:59:01.644Z,100683.47
2023-06-10T02:00:05.967Z,100688.91
2023-06-10T02:01:09.730Z,100691.50
2023-06-10T02:02:13.684Z,100695.53
2023-06-10T02:03:17.521Z,100675.91
2023-06-10T02:04:21.345Z,100680.91
2023-06-10T02:05:25.109Z,100695.53
2023-06-10T02:06:30.143Z,100683.00
2023-06-10T02:07:35.543Z,100685.84
2023-06-10T02:08:39.280Z,100686.75
2023-06-10T02:09:43.010Z,100693.88
2023-06-10T02:10:46.665Z,100681.03
2023-06-10T02:11:50.398Z,100683.75
2023-06-10T02:12:54.247Z,100683.03
2023-06-10T02:13:58.030Z,100677.16
2023-06-10T02:15:01.766Z,100675.63
2023-06-10T02:16:05.810Z,100680.47
2023-06-10T02:17:09.564Z,100685.09
2023-06-10T02:18:13.329Z,100678.44
2023-06-10T02:19:19.370Z,100680.31
2023-06-10T02:20:23.291Z,100679.78
2023-06-10T02:21:27.415Z,100657.31
2023-06-10T02:22:31.210Z,100674.50
2023-06-10T02:23:38.366Z,100666.75
2023-06-10T02:24:42.296Z,100668.16
2023-06-10T02:25:46.135Z,100675.63
2023-06-10T02:26:49.787Z,100663.72
2023-06-10T02:27:53.568Z,100671.44
2023-06-10T02:28:57.313Z,100660.22
2023-06-10T02:30:01.255Z,100665.16
2023-06-10T02:31:05.211Z,100634.56
2023-06-10T02:32:12.720Z,100654.47
2023-06-10T02:33:18.718Z,100656.31
2023-06-10T02:34:22.586Z,100656.19
2023-06-10T02:35:33.003Z,100654.63
2023-06-10T02:36:38.887Z,100653.22
2023-06-10T02:37:42.604Z,100645.63
2023-06-10T02:38:48.018Z,100648.63
2023-06-10T02:39:51.764Z,100652.31
2023-06-10T02:40:57.506Z,100648.63
2023-06-10T02:42:01.279Z,100641.69
2023-06-10T02:43:04.970Z,100649.47
2023-06-10T02:44:08.753Z,100647.66
2023-06-10T02:45:12.804Z,100647.28
2023-06-10T02:46:16.700Z,100627.16
2023-06-10T02:47:25.693Z,100645.53
2023-06-10T02:48:30.512Z,100641.97
2023-06-10T02:49:34.320Z,100630.84
2023-06-10T02:50:38.055Z,100635.72
2023-06-10T02:51:41.846Z,100639.44
2023-06-10T02:52:46.267Z,100643.16
2023-06-10T02:53:51.681Z,100636.16
2023-06-10T02:54:55.502Z,100636.25
2023-06-10T02:55:59.388Z,100633.41
2023-06-10T02:57:03.299Z,100620.91
2023-06-10T02:58:08.765Z,100631.91
2023-06-10T02:59:12.523Z,100643.53
2023-06-10T03:00:22.096Z,100637.66
2023-06-10T03:01:28.753Z,100644.56
2023-06-10T03:02:44.116Z,100633.22
2023-06-10T03:03:48.429Z,100632.91
2023-06-10T03:04:52.234Z,100655.75
2023-06-10T03:05:56.148Z,100642.06
2023-06-10T03:07:02.153Z,100645.84
2023-06-10T03:08:06.463Z,100646.78
2023-06-10T03:09:12.642Z,100651.16
2023-06-10T03:10:16.854Z,100649.56
2023-06-10T03:11:20.615Z,100648.00
2023-06-10T03:12:24.476Z,100647.09
2023-06-10T03:13:29.632Z,100639.03
2023-06-10T03:14:33.501Z,100630.09
2023-06-10T03:15:37.249Z,100643.78
2023-06-10T03:16:41.196Z,100618.13
2023-06-10T03:17:45.067Z,100640.19
2023-06-10T03:18:48.853Z,100635.47
2023-06-10T03:19:55.402Z,100636.53
2023-06-10T03:20:59.262Z,100634.66
2023-06-10T03:22:11.181Z,100630.84
2023-06-10T03:23:14.974Z,100636.97
2023-06-10T03:24:20.489Z,100646.34
2023-06-10T03:25:24.167Z,100627.25
2023-06-10T03:26:28.825Z,100638.06
2023-06-10T03:27:32.697Z,100646.25
2023-06-10T03:28:36.472Z,100638.22
2023-06-10T03:29:45.830Z,100621.19
2023-06-10T03:30:49.806Z,100638.53
2023-06-10T03:31:53.530Z,100642.69
2023-06-10T03:33:00.495Z,100625.56
2023-06-10T03:34:04.787Z,100654.09
2023-06-10T03:35:11.895Z,100641.97
2023-06-10T03:36:19.334Z,100643.06
2023-06-10T03:37:23.156Z,100640.28
2023-06-10T03:38:30.135Z,100637.63
2023-06-10T03:39:35.649Z,100643.25
2023-06-10T03:40:40.428Z,100639.38
2023-06-10T03:41:44.211Z,100638.25
2023-06-10T03:42:47.986Z,100639.06
2023-06-10T03:43:51.705Z,100651.97
2023-06-10T03:44:55.491Z,100651.94
2023-06-10T03:45:59.541Z,100637.25
2023-06-10T03:47:03.322Z,100649.34
2023-06-10T03:48:07.719Z,100654.47
2023-06-10T03:49:11.576Z,100638.34
2023-06-10T03:50:17.873Z,100640.75
2023-06-10T03:51:21.726Z,100644.72
2023-06-10T03:52:25.428Z,100650.16
2023-06-10T03:53:29.106Z,100655.41
2023-06-10T03:54:34.418Z,100655.53
2023-06-10T03:55:38.149Z,100663.25
2023-06-10T03:56:42.125Z,100662.69
2023-06-10T03:57:45.877Z,100661.00
2023-06-10T03:58:49.771Z,100645.41
2023-06-10T03:59:53.950Z,100664.47
2023-06-10T04:00:57.707Z,100663.34
2023-06-10T04:02:01.685Z,100660.03
2023-06-10T04:03:05.570Z,100670.38
2023-06-10T04:04:09.361Z,100675.91
2023-06-10T04:05:13.279Z,100672.97
2023-06-10T04:06:17.019Z,100683.28
2023-06-10T04:07:20.852Z,100682.59
2023-06-10T04:08:24.550Z,100678.03
2023-06-10T04:09:28.510Z,100680.66
2023-06-10T04:10:33.969Z,100679.50
2023-06-10T04:11:37.914Z,100685.81
2023-06-10T04:12:41.729Z,100682.25
2023-06-10T04:13:45.459Z,100688.38
2023-06-10T04:14:49.176Z,100690.41
2023-06-10T04:15:53.023Z,100671.16
2023-06-10T04:16:56.831Z,100690.94
2023-06-10T04:18:00.742Z,100688.84
2023-06-10T04:19:07.180Z,100688.97
2023-06-10T04:20:11.499Z,100691.03
2023-06-10T04:21:15.249Z,100683.28
2023-06-10T04:22:18.976Z,100686.44
2023-06-10T04:23:22.812Z,100683.84
2023-06-10T04:24:26.585Z,100663.16
2023-06-10T04:25:30.274Z,100674.25
2023-06-10T04:26:37.694Z,100673.44
2023-06-10T04:27:41.432Z,100667.94
2023-06-10T04:28:46.127Z,100673.63
2023-06-10T04:29:49.905Z,100663.53
2023-06-10T04:30:53.557Z,100671.22
2023-06-10T04:31:57.415Z,100658.50
2023-06-10T04:33:01.266Z,100667.50
2023-06-10T04:34:05.124Z,100659.56
2023-06-10T04:35:10.227Z,100663.00
2023-06-10T04:36:14.218Z,100660.16
2023-06-10T04:37:18.008Z,100660.78
2023-06-10T04:38:21.724Z,100662.13
2023-06-10T04:39:25.427Z,100658.13
2023-06-10T04:40:29.137Z,100649.75
2023-06-10T04:41:34.613Z,100651.41
2023-06-10T04:42:38.564Z,100650.00
2023-06-10T04:43:42.351Z,100645.19
2023-06-10T04:44:46.110Z,100638.03
2023-06-10T04:45:49.852Z,100626.72
2023-06-10T04:46:53.628Z,100634.25
2023-06-10T04:47:57.385Z,100631.63
2023-06-10T04:49:01.647Z,100633.59
2023-06-10T04:50:06.152Z,100634.50
2023-06-10T04:51:09.851Z,100633.41
2023-06-10T04:52:13.657Z,100626.56
2023-06-10T04:53:17.420Z,100624.81
2023-06-10T04:54:21.114Z,100627.91
2023-06-10T04:55:25.009Z,100628.00
2023-06-10T04:56:28.727Z,100616.97
2023-06-10T04:57:34.030Z,100619.88
2023-06-10T04:58:37.774Z,100626.66
2023-06-10T04:59:41.476Z,100623.16
2023-06-10T05:00:45.243Z,100624.06
2023-06-10T05:01:48.974Z,100627.69
2023-06-10T05:02:52.833Z,100622.09
2023-06-10T05:03:56.642Z,100613.00
2023-06-10T05:05:00.353Z,100610.50
2023-06-10T05:06:04.355Z,100623.75
2023-06-10T05:07:08.277Z,100625.31
2023-06-10T05:08:11.958Z,100623.94
2023-06-10T05:09:15.727Z,100617.44
2023-06-10T05:10:19.507Z,100620.75
2023-06-10T05:11:23.276Z,100617.53
2023-06-10T05:12:27.015Z,100618.41
2023-06-10T05:13:32.296Z,100604.50
2023-06-10T05:14:36.020Z,100619.41
2023-06-10T05:15:39.746Z,100617.94
2023-06-10T05:16:43.582Z,100619.06
2023-06-10T05:17:47.328Z,100628.94
2023-06-10T05:18:51.259Z,100618.59
2023-06-10T05:19:55.036Z,100614.84
2023-06-10T05:20:58.759Z,100618.97
2023-06-10T05:22:02.427Z,100608.53
2023-06-10T05:23:06.182Z,100613.88
2023-06-10T05:24:10.994Z,100612.78
2023-06-10T05:25:14.721Z,100610.00
2023-06-10T05:26:18.495Z,100603.09
2023-06-10T05:27:22.319Z,100599.34
2023-06-10T05:28:26.039Z,100599.94
2023-06-10T05:29:31.407Z,100605.53
2023-06-10T05:30:35.184Z,100597.75
2023-06-10T05:31:38.958Z,100603.19
2023-06-10T05:32:42.703Z,100596.66
2023-06-10T05:33:46.465Z,100591.66
2023-06-10T05:34:50.138Z,100583.41
2023-06-10T05:35:53.958Z,100568.72
2023-06-10T05:36:57.922Z,100588.38
2023-06-10T05:38:03.837Z,100586.78
2023-06-10T05:39:07.908Z,100588.38
2023-06-10T05:40:12.652Z,100592.84
2023-06-10T05:41:16.494Z,100588.09
2023-06-10T05:42:20.283Z,100561.28
2023-06-10T05:43:24.028Z,100584.66
2023-06-10T05:44:27.717Z,100590.69
2023-06-10T05:45:33.168Z,100581.97
2023-06-10T05:46:37.099Z,100586.72
2023-06-10T05:47:40.984Z,100578.19
2023-06-10T05:48:44.818Z,100569.16
2023-06-10T05:49:48.557Z,100564.03
2023-06-10T05:50:52.351Z,100562.56
2023-06-10T05:51:56.186Z,100563.38
2023-06-10T05:52:59.874Z,100561.69
2023-06-10T05:54:03.616Z,100559.81
2023-06-10T05:55:08.035Z,100556.59
2023-06-10T05:56:11.990Z,100548.88
2023-06-10T05:57:15.790Z,100545.38
2023-06-10T05:58:19.609Z,100548.72
2023-06-10T05:59:23.384Z,100542.03
2023-06-10T06:00:27.273Z,100551.94
2023-06-10T06:01:32.703Z,100544.16
2023-06-10T06:02:36.657Z,100543.38
2023-06-10T06:03:40.579Z,100544.97
2023-06-10T06:04:44.358Z,100538.84
2023-06-10T06:05:48.286Z,100537.81
2023-06-10T06:06:51.956Z,100528.09
2023-06-10T06:07:55.748Z,100532.69
2023-06-10T06:08:59.511Z,100519.41
2023-06-10T06:10:03.406Z,100530.72
2023-06-10T06:11:07.187Z,100519.59
2023-06-10T06:12:11.454Z,100520.88
2023-06-10T06:13:15.219Z,100509.78
2023-06-10T06:14:18.936Z,100485.06
2023-06-10T06:15:22.673Z,100516.72
2023-06-10T06:16:26.523Z,100506.50
2023-06-10T06:17:31.999Z,100504.16
2023-06-10T06:18:35.784Z,100509.50
2023-06-10T06:19:39.515Z,100504.91
2023-06-10T06:20:43.306Z,100496.69
2023-06-10T06:21:47.116Z,100494.50
2023-06-10T06:22:54.183Z,100495.06
2023-06-10T06:23:57.970Z,100492.84
2023-06-10T06:25:01.933Z,100488.97
2023-06-10T06:26:08.053Z,100484.66
2023-06-10T06:27:12.653Z,100483.50
2023-06-10T06:28:16.488Z,100487.00
2023-06-10T06:29:20.309Z,100481.47
2023-06-10T06:30:24.083Z,100481.88
2023-06-10T06:31:27.812Z,100473.06
2023-06-10T06:32:33.431Z,100475.84
2023-06-10T06:33:37.207Z,100459.06
2023-06-10T06:34:40.984Z,100477.88
2023-06-10T06:35:44.633Z,100462.34
2023-06-10T06:36:48.377Z,100477.47
2023-06-10T06:37:52.258Z,100469.91
2023-06-10T06:38:56.001Z,100470.16
2023-06-10T06:40:03.947Z,100463.44
2023-06-10T06:41:08.294Z,100470.22
2023-06-10T06:42:13.034Z,100468.19
2023-06-10T06:43:16.930Z,100455.72
2023-06-10T06:44:20.672Z,100449.75
2023-06-10T06:45:24.465Z,100447.00
2023-06-10T06:46:28.215Z,100442.25
2023-06-10T06:47:33.799Z,100454.66
2023-06-10T06:48:37.754Z,100448.22
2023-06-10T06:49:43.595Z,100442.25
2023-06-10T06:50:47.335Z,100442.69
2023-06-10T06:51:53.730Z,100438.38
2023-06-10T06:52:57.423Z,100429.63
2023-06-10T06:54:08.652Z,100434.81
2023-06-10T06:55:14.576Z,100431.25
2023-06-10T06:56:18.337Z,100430.53
2023-06-10T06:57:22.091Z,100430.06
2023-06-10T06:58:27.911Z,100420.34
2023-06-10T06:59:31.833Z,100397.69
2023-06-10T07:00:35.639Z,100423.50
2023-06-10T07:01:39.483Z,100414.66
2023-06-10T07:02:44.989Z,100410.66
2023-06-10T07:03:48.738Z,100409.41
2023-06-10T07:04:52.830Z,100375.81
2023-06-10T07:05:56.576Z,100408.97
2023-06-10T07:07:00.309Z,100415.28
2023-06-10T07:08:04.052Z,100407.00
2023-06-10T07:09:07.860Z,100408.63
2023-06-10T07:10:11.843Z,100410.16
2023-06-10T07:11:15.675Z,100414.16
2023-06-10T07:12:19.408Z,100406.53
2023-06-10T07:13:23.200Z,100414.47
2023-06-10T07:14:26.978Z,100417.69
2023-06-10T07:15:30.636Z,100411.72
2023-06-10T07:16:34.441Z,100404.50
2023-06-10T07:17:38.193Z,100412.09
2023-06-10T07:18:43.722Z,100406.53
2023-06-10T07:19:51.252Z,100396.50
2023-06-10T07:20:54.869Z,100404.22
2023-06-10T07:21:58.526Z,100399.78
2023-06-10T07:23:02.290Z,100407.84
2023-06-10T07:24:06.826Z,100403.94
2023-06-10T07:25:11.130Z,100404.00
2023-06-10T07:26:15.087Z,100404.84
2023-06-10T07:27:18.809Z,100407.16
2023-06-10T07:28:22.738Z,100405.56
2023-06-10T07:29:26.545Z,100395.28
2023-06-10T07:30:30.694Z,100398.75
2023-06-10T07:31:34.560Z,100397.25
2023-06-10T07:32:38.710Z,100394.13
2023-06-10T07:33:44.112Z,100392.78
2023-06-10T07:34:47.928Z,100389.69
2023-06-10T07:35:51.751Z,100388.13
2023-06-10T07:36:55.644Z,100379.78
2023-06-10T07:37:59.401Z,100390.44
2023-06-10T07:39:03.124Z,100377.69
2023-06-10T07:40:07.741Z,100381.25
2023-06-10T07:41:14.995Z,100372.75
2023-06-10T07:42:22.274Z,100379.50
2023-06-10T07:43:26.698Z,100373.94
2023-06-10T07:44:30.447Z,100373.16
2023-06-10T07:45:34.185Z,100375.53
2023-06-10T07:46:38.001Z,100383.91
2023-06-10T07:47:41.784Z,100371.88
2023-06-10T07:48:47.242Z,100357.72
2023-06-10T07:49:50.955Z,100360.50
2023-06-10T07:50:54.659Z,100361.91
2023-06-10T07:51:58.471Z,100348.63
2023-06-10T07:53:02.261Z,100348.31
2023-06-10T07:54:06.168Z,100342.47
2023-06-10T07:55:10.569Z,100349.41
2023-06-10T07:56:14.523Z,100344.03
2023-06-10T07:57:18.407Z,100344.06
2023-06-10T07:58:22.305Z,100340.50
2023-06-10T07:59:26.005Z,100343.00
2023-06-10T08:00:29.763Z,100336.72
2023-06-10T08:01:33.486Z,100325.94
2023-06-10T08:02:37.340Z,100329.88
2023-06-10T08:03:41.588Z,100323.63
2023-06-10T08:04:47.026Z,100319.53
2023-06-10T08:05:51.538Z,100304.16
2023-06-10T08:06:55.265Z,100294.69
2023-06-10T08:08:00.683Z,100292.03
2023-06-10T08:09:05.781Z,100306.41
2023-06-10T08:10:10.514Z,100308.25
2023-06-10T08:11:14.309Z,100305.59
2023-06-10T08:12:18.001Z,100292.50
2023-06-10T08:13:21.724Z,100302.63
2023-06-10T08:14:25.506Z,100307.44
2023-06-10T08:15:29.131Z,100305.06
2023-06-10T08:16:32.888Z,100302.41
2023-06-10T08:17:36.668Z,100295.50
2023-06-10T08:18:40.431Z,100286.91
2023-06-10T08:19:44.366Z,100290.56
2023-06-10T08:20:49.719Z,100287.91
2023-06-10T08:21:53.458Z,100284.75
2023-06-10T08:22:57.173Z,100287.59
2023-06-10T08:24:00.898Z,100283.69
2023-06-10T08:25:05.132Z,100283.25
2023-06-10T08:26:08.797Z,100280.53
2023-06-10T08:27:12.552Z,100280.91
2023-06-10T08:28:17.548Z,100268.59
2023-06-10T08:29:21.319Z,100281.69
2023-06-10T08:30:25.143Z,100271.44
2023-06-10T08:31:28.931Z,100271.44
2023-06-10T08:32:32.951Z,100267.00
2023-06-10T08:33:36.677Z,100267.22
2023-06-10T08:34:40.474Z,100254.94
2023-06-10T08:35:44.179Z,100262.63
2023-06-10T08:36:49.563Z,100253.50
2023-06-10T08:37:53.268Z,100259.50
2023-06-10T08:38:56.992Z,100255.91
2023-06-10T08:40:00.681Z,100256.47
2023-06-10T08:41:06.991Z,100262.63
2023-06-10T08:42:17.282Z,100263.41
2023-06-10T08:43:32.287Z,100261.31
2023-06-10T08:44:38.193Z,100255.38
2023-06-10T08:45:44.483Z,100258.88
2023-06-10T08:46:49.877Z,100238.63
2023-06-10T08:47:55.494Z,100261.31
2023-06-10T08:49:04.226Z,100257.03
2023-06-10T08:50:11.741Z,100252.16
2023-06-10T08:51:18.387Z,100257.81
2023-06-10T08:52:23.835Z,100255.06
2023-06-10T08:53:28.948Z,100249.94
2023-06-10T08:54:35.799Z,100242.69
2023-06-10T08:55:43.742Z,100240.75
2023-06-10T08:56:49.625Z,100247.19
2023-06-10T08:57:54.383Z,100235.22
2023-06-10T08:58:59.429Z,100234.41
2023-06-10T09:00:03.438Z,100246.75
2023-06-10T09:01:07.267Z,100234.81
2023-06-10T09:02:14.813Z,100251.44
2023-06-10T09:03:20.165Z,100245.50
2023-06-10T09:04:25.882Z,100245.50
2023-06-10T09:05:30.606Z,100237.38
2023-06-10T09:06:35.823Z,100230.34
2023-06-10T09:07:41.271Z,100229.59
2023-06-10T09:08:45.629Z,100216.09
2023-06-10T09:09:50.835Z,100237.47
2023-06-10T09:10:54.984Z,100231.84
2023-06-10T09:11:58.746Z,100238.69
2023-06-10T09:13:02.493Z,100230.44
2023-06-10T09:14:06.299Z,100227.25
2023-06-10T09:15:10.935Z,100216.91
2023-06-10T09:16:14.976Z,100237.28
2023-06-10T09:17:19.242Z,100240.91
2023-06-10T09:18:22.961Z,100236.97
2023-06-10T09:19:27.128Z,100245.56
2023-06-10T09:20:33.575Z,100238.19
2023-06-10T09:21:37.311Z,100239.28
2023-06-10T09:22:44.618Z,100227.53
2023-06-10T09:23:48.936Z,100235.03
2023-06-10T09:24:52.800Z,100241.94
2023-06-10T09:25:59.801Z,100222.06
2023-06-10T09:27:07.183Z,100213.56
2023-06-10T09:28:16.358Z,100226.88
2023-06-10T09:29:20.107Z,100231.09
2023-06-10T09:30:28.567Z,100232.84
2023-06-10T09:31:33.228Z,100230.47
2023-06-10T09:32:41.312Z,100235.72
2023-06-10T09:33:46.335Z,100218.81
2023-06-10T09:34:50.480Z,100231.47
2023-06-10T09:35:54.189Z,100239.19
2023-06-10T09:36:58.004Z,100221.44
2023-06-10T09:38:03.792Z,100242.22
2023-06-10T09:39:15.466Z,100239.91
2023-06-10T09:40:19.457Z,100249.00
2023-06-10T09:41:23.319Z,100242.78
2023-06-10T09:42:27.060Z,100246.50
2023-06-10T09:43:51.093Z,100249.00
2023-06-10T09:44:54.941Z,100245.19
2023-06-10T09:45:59.019Z,100244.38
2023-06-10T09:47:02.882Z,100239.19
2023-06-10T09:48:06.931Z,100250.81
2023-06-10T09:49:10.675Z,100247.13
2023-06-10T09:50:14.703Z,100250.16
2023-06-10T09:51:18.776Z,100252.28
2023-06-10T09:52:25.066Z,100254.88
2023-06-10T09:53:35.065Z,100256.63
2023-06-10T09:54:38.925Z,100258.28
2023-06-10T09:55:43.443Z,100264.47
2023-06-10T09:56:49.605Z,100265.41
2023-06-10T09:57:56.330Z,100261.88
2023-06-10T09:59:00.040Z,100266.75
2023-06-10T10:00:07.674Z,100262.00
2023-06-10T10:01:13.076Z,100259.25
2023-06-10T10:02:17.767Z,100259.47
2023-06-10T10:03:25.261Z,100251.19
2023-06-10T10:04:29.339Z,100257.94
2023-06-10T10:05:33.072Z,100260.34
2023-06-10T10:06:37.170Z,100265.44
2023-06-10T10:07:43.610Z,100269.59
2023-06-10T10:08:50.388Z,100265.94
2023-06-10T10:09:54.278Z,100263.84
2023-06-10T10:11:02.922Z,100273.50
2023-06-10T10:12:12.556Z,100274.16
2023-06-10T10:13:16.449Z,100270.03
2023-06-10T10:14:21.876Z,100278.50
2023-06-10T10:15:30.591Z,100273.94
2023-06-10T10:16:38.267Z,100277.47
2023-06-10T10:17:46.711Z,100275.19
2023-06-10T10:18:55.956Z,100272.06
2023-06-10T10:20:05.504Z,100248.91
2023-06-10T10:21:15.029Z,100281.88
2023-06-10T10:22:26.968Z,100267.22
2023-06-10T10:23:37.408Z,100251.53
2023-06-10T10:24:48.629Z,100275.31
2023-06-10T10:25:55.647Z,100282.06
2023-06-10T10:27:03.136Z,100270.06
2023-06-10T10:28:10.994Z,100289.41
2023-06-10T10:29:25.936Z,100284.34
2023-06-10T10:30:32.232Z,100281.91
2023-06-10T10:31:38.235Z,100281.13
2023-06-10T10:32:50.750Z,100284.75
2023-06-10T10:33:59.979Z,100297.41
2023-06-10T10:35:10.083Z,100297.97
2023-06-10T10:36:15.799Z,100296.81
2023-06-10T10:37:20.243Z,100298.34
2023-06-10T10:38:24.610Z,100296.81
2023-06-10T10:39:28.518Z,100302.13
2023-06-10T10:40:35.464Z,100298.06
2023-06-10T10:41:40.509Z,100309.06
2023-06-10T10:42:45.410Z,100303.59
2023-06-10T10:43:49.840Z,100305.97
2023-06-10T10:44:54.340Z,100319.75
2023-06-10T10:46:01.559Z,100319.91
2023-06-10T10:47:06.390Z,100326.22
2023-06-10T10:48:11.424Z,100322.06
2023-06-10T10:49:17.185Z,100322.09
2023-06-10T10:50:22.445Z,100338.91
2023-06-10T10:51:26.334Z,100337.25
2023-06-10T10:52:53.111Z,100325.53
2023-06-10T10:54:15.980Z,100332.00
2023-06-10T10:55:19.758Z,100342.91
2023-06-10T10:56:29.884Z,100346.03
2023-06-10T10:57:33.699Z,100352.00
2023-06-10T10:58:37.757Z,100352.28
2023-06-10T10:59:53.250Z,100347.28
2023-06-10T11:00:57.414Z,100351.25
2023-06-10T11:02:01.468Z,100354.97
2023-06-10T11:03:11.228Z,100352.47
2023-06-10T11:04:22.239Z,100348.72
2023-06-10T11:05:37.726Z,100359.97
2023-06-10T11:06:41.689Z,100347.25
2023-06-10T11:07:55.927Z,100359.69
2023-06-10T11:09:02.291Z,100357.88
2023-06-10T11:10:10.345Z,100365.78
2023-06-10T11:11:21.625Z,100367.31
2023-06-10T11:12:27.020Z,100370.88
2023-06-10T11:13:30.711Z,100372.34
2023-06-10T11:14:34.338Z,100377.94
2023-06-10T11:15:44.808Z,100385.44
2023-06-10T11:16:50.301Z,100379.72
2023-06-10T11:18:11.015Z,100376.25
2023-06-10T11:19:34.282Z,100364.13
2023-06-10T11:21:01.343Z,100388.34
2023-06-10T11:22:07.468Z,100383.19
2023-06-10T11:23:11.350Z,100387.63
2023-06-10T11:24:15.505Z,100382.72
2023-06-10T11:25:39.359Z,100387.00
2023-06-10T11:26:46.804Z,100383.41
2023-06-10T11:27:54.479Z,100376.28
2023-06-10T11:29:07.081Z,100389.25
2023-06-10T11:30:28.617Z,100387.13
2023-06-10T11:31:33.361Z,100390.47
2023-06-10T11:32:37.515Z,100389.06
2023-06-10T11:33:41.429Z,100395.75
2023-06-10T11:34:53.630Z,100396.56
2023-06-10T11:35:57.337Z,100401.72
2023-06-10T11:37:01.615Z,100396.19
2023-06-10T11:38:05.404Z,100414.44
2023-06-10T11:39:09.551Z,100406.09
2023-06-10T11:40:18.868Z,100413.63
2023-06-10T11:41:22.804Z,100416.84
2023-06-10T11:42:26.675Z,100416.38
2023-06-10T11:43:32.753Z,100417.63
2023-06-10T11:44:36.501Z,100384.34
2023-06-10T11:45:43.051Z,100408.84
2023-06-10T11:46:47.635Z,100421.03
2023-06-10T11:48:01.322Z,100425.03
2023-06-10T11:49:06.090Z,100424.16
2023-06-10T11:50:10.432Z,100442.75
2023-06-10T11:51:14.128Z,100437.31
2023-06-10T11:52:17.880Z,100446.31
2023-06-10T11:53:21.617Z,100448.25
2023-06-10T11:54:25.309Z,100453.00
2023-06-10T11:55:44.082Z,100450.38
2023-06-10T11:56:47.956Z,100430.28
2023-06-10T11:57:51.737Z,100453.22
2023-06-10T11:58:58.190Z,100442.38
2023-06-10T12:00:07.262Z,100454.06
2023-06-10T12:01:12.888Z,100455.31
2023-06-10T12:02:18.188Z,100448.34
2023-06-10T12:03:22.778Z,100466.88
2023-06-10T12:04:26.637Z,100465.72
2023-06-10T12:05:30.396Z,100473.47
2023-06-10T12:06:44.642Z,100468.75
2023-06-10T12:07:48.395Z,100471.53
2023-06-10T12:08:52.475Z,100468.75
2023-06-10T12:10:12.032Z,100476.25
2023-06-10T12:11:23.276Z,100458.75
2023-06-10T12:12:27.104Z,100467.16
2023-06-10T12:13:31.174Z,100472.69
2023-06-10T12:14:56.920Z,100471.53
2023-06-10T12:16:09.579Z,100466.59
2023-06-10T12:17:13.394Z,100478.19
2023-06-10T12:18:20.608Z,100479.34
2023-06-10T12:19:24.359Z,100486.84
2023-06-10T12:20:29.154Z,100486.84
2023-06-10T12:21:33.767Z,100469.63
2023-06-10T12:22:41.746Z,100485.69
2023-06-10T12:24:07.074Z,100487.28
2023-06-10T12:25:12.396Z,100492.81
2023-06-10T12:26:16.708Z,100490.41